Accueil
METAR-TAF:

METAR-TAF

Aéroports :

Provo Municipal Airport

Provo, Utah, États-Unis

latitude: 40-13N, longitude: 111-43W, altitude: 1369 m

Observation

Le bulletin a été fait il y a 51 minutes, à 00:56 UTC
Vent 12 kt de nord-ouest
Température 7°C
Humidité 45%
Pression 1028 hPa
Visibilité: 16.1 km
Nuages épars à une hauteur de 20000 ft

METAR: KPVU 120056Z 32012KT 10SM SCT200 07/M04 A3036 RMK AO2 SLP292 T00721039

Heure: 18:47 (01:47 UTC)

Prévision

Le bulletin a été fait il y a 2 heures et 27 minutes, à 23:20 UTC
Prévision valable du 12 à 00 UTC au 12 à 24 UTC
Vent 6 kt de nord/nord-ouest
Visibilité: 10 km
Quelques nuages à une hauteur de 20000 ft
A partir de 12 à 0400 UTC
Vent 5 kt de direction variable
Visibilité: 10 km
Nuages épars à une hauteur de 20000 ft

TAF: KPVU 112320Z 1200/1224 34006KT P6SM FEW200 FM120400 VRB05KT P6SM SCT200

Observations et prévisions météorologiques de plus de 4000 aéroports (messages METAR et TAF).

Les stations disponibles sont représentées par des disques jaunes et rouges sur la carte.

Passer la souris dessus pour voir le nom de la station.

Cliquer dessus pour voir les observations et prévisions météorologiques.

Pour changer de carte: cliquez sur les boutons verts avec une croix noire pour zoomer, sur le bouton vert avec un tiret pour effectuer un zoom arrière, ou sur les flèches vertes pour les cartes adjacentes.


METAR-TAF: